메인 페이지
METAR-TAF:

METAR-TAF

공항 :

코스라에 국제공항

코스라에 섬, 미크로네시아

위도: 05-21N, 경도: 162-57E, 고도: 3m

현재 날씨관측

예보는 23분 전, 02:50시(UTC)에 발표되었습니다.
북동17kt
온도 31°C
습도 75%
기압 1008 hPa
시정: 16.1km
고도 1900ft 상공 구름 보통, 타워링 적운.
고도 30000ft 상공 구름 많음

METAR: PTSA 210250Z 04017KT 10SM SCT019TCU BKN300 31/26 A2976 RMK TCU SE-SW AND NW

시각: 14:13 (03:13 UTC)

예보

예보는 3 시간 45분 전, 23:28시(UTC)에 발표되었습니다.
예보 대상 시간: 21일 00시부터 21일 24시까지 (UTC)
8kt
시정: 10km
고도 2000ft 상공 구름 보통

TAF: PTSA 202328Z 2100/2124 09008KT P6SM SCT020

4,000개 이상의 공항 관측 자료 및 예보 (METAR 및 TAF 보고).

지도상에서 검색 가능한 기상관측소가 노란 점과 빨간 점으로 표시되어 있습니다.

기상관측소 명을 보려면 표시 위로 마우스를 이동하세요.

날씨 관측과 예보를 보려면 클릭하세요.

지도 변경 : 확대하려면 엑스 표시가 있는 녹색 버튼, 축소하려면 빼기 표시가 있는 녹색 버튼, 다음 페이지의 지도를 보려면 녹색 화살표를 클릭하세요.


METAR-TAF: